Time;durP1;ratioP1;P1;durP2;ratioP2;P2;SDS_P1;SDS_P2;PMS_P1;PMS_P2;Temp;Humidity;BMP_temperature;BMP_pressure;BME280_temperature;BME280_humidity;BME280_pressure;Samples;Min_cycle;Max_cycle;Signal;HPM_P1;HPM_P2
2022/11/05 00:10:09;;;;;;;17.65;10.63;;;5.50;99.90;;;;;;5073114;28;20115;-30
2022/11/05 00:18:05;;;;;;;10.13;7.68;;;5.50;99.90;;;;;;5072572;28;20444;-31
2022/11/05 00:20:30;;;;;;;11.13;8.82;;;5.50;99.90;;;;;;5071169;28;20029;-30
2022/11/05 00:25:56;;;;;;;12.35;9.15;;;5.40;99.90;;;;;;5071905;28;20044;-29
2022/11/05 00:28:23;;;;;;;18.58;13.85;;;5.30;99.90;;;;;;5070812;28;20485;-31
2022/11/05 00:30:48;;;;;;;12.23;7.90;;;5.30;99.90;;;;;;5070979;28;20040;-31
2022/11/05 00:33:14;;;;;;;14.27;8.48;;;5.30;99.90;;;;;;5070749;28;20549;-30
2022/11/05 00:35:40;;;;;;;14.73;9.40;;;5.40;99.90;;;;;;5070813;28;20086;-30
2022/11/05 00:38:05;;;;;;;9.52;7.38;;;5.40;99.90;;;;;;5070980;28;20378;-30
2022/11/05 00:40:31;;;;;;;11.52;8.07;;;5.50;99.90;;;;;;5070698;28;20036;-30
2022/11/05 00:45:41;;;;;;;8.70;6.40;;;5.60;99.90;;;;;;5072120;28;20046;-30
2022/11/05 00:50:51;;;;;;;;;;;5.70;99.90;;;;;;5072522;28;20047;-30
2022/11/05 00:53:17;;;;;;;8.75;6.88;;;5.80;99.90;;;;;;5070461;28;20293;-30
2022/11/05 00:55:44;;;;;;;11.65;7.88;;;5.90;99.90;;;;;;5070385;28;20037;-31
2022/11/05 00:58:12;;;;;;;10.00;6.95;;;6.00;99.90;;;;;;5070794;28;20029;-30
2022/11/05 01:00:41;;;;;;;12.25;7.45;;;6.00;99.90;;;;;;5070554;28;20040;-30
2022/11/05 01:03:11;;;;;;;11.00;8.15;;;6.10;99.90;;;;;;5070673;28;20055;-30
2022/11/05 01:05:46;;;;;;;8.23;5.63;;;6.20;99.90;;;;;;5069705;28;20179;-30
2022/11/05 01:08:13;;;;;;;6.80;5.70;;;6.20;99.90;;;;;;5071902;28;20072;-30
2022/11/05 01:10:44;;;;;;;9.23;5.63;;;6.20;99.90;;;;;;5070320;28;20047;-30
2022/11/05 01:13:11;;;;;;;8.88;5.72;;;6.10;99.90;;;;;;5070524;28;20036;-31
2022/11/05 01:15:38;;;;;;;10.00;4.85;;;6.10;99.90;;;;;;5070191;28;20047;-31
2022/11/05 01:18:04;;;;;;;9.30;6.60;;;6.10;99.90;;;;;;5070538;28;20041;-31
2022/11/05 01:20:30;;;;;;;23.88;14.38;;;6.10;99.90;;;;;;5070617;28;20437;-29
2022/11/05 01:22:57;;;;;;;12.57;6.78;;;6.10;99.90;;;;;;5070262;28;20094;-31
2022/11/05 01:25:23;;;;;;;9.43;6.05;;;6.10;99.90;;;;;;5070433;28;20090;-31
2022/11/05 01:27:48;;;;;;;7.85;4.13;;;6.10;99.90;;;;;;5070532;28;20432;-31
2022/11/05 01:30:14;;;;;;;8.25;4.05;;;6.10;99.90;;;;;;5070433;28;20454;-30
2022/11/05 01:32:40;;;;;;;5.65;3.72;;;6.00;99.90;;;;;;5070258;28;20040;-31
2022/11/05 01:35:09;;;;;;;6.22;4.85;;;6.10;99.90;;;;;;5070371;28;20029;-29
2022/11/05 01:37:35;;;;;;;7.03;3.83;;;6.10;99.90;;;;;;5070117;28;20041;-31
2022/11/05 01:40:01;;;;;;;8.30;3.60;;;6.00;99.90;;;;;;5070409;28;20043;-30
2022/11/05 01:42:30;;;;;;;7.47;4.45;;;6.00;99.90;;;;;;5070193;28;20041;-30
2022/11/05 01:45:23;;;;;;;6.05;4.03;;;6.00;99.90;;;;;;5070343;28;20578;-31
2022/11/05 01:47:57;;;;;;;5.80;4.18;;;5.90;99.90;;;;;;5070471;28;20040;-30
2022/11/05 01:50:29;;;;;;;8.27;4.30;;;5.90;99.90;;;;;;5062419;28;20306;-31
2022/11/05 01:53:04;;;;;;;8.60;4.65;;;5.90;99.90;;;;;;5069887;28;20037;-30
2022/11/05 01:55:37;;;;;;;8.68;4.72;;;5.90;99.90;;;;;;5070260;28;20220;-31
2022/11/05 01:58:06;;;;;;;9.13;5.07;;;5.80;99.90;;;;;;5069951;28;20037;-30
2022/11/05 02:00:33;;;;;;;8.60;7.15;;;5.80;99.90;;;;;;5070176;28;20489;-31
2022/11/05 02:02:59;;;;;;;10.00;7.30;;;5.80;99.90;;;;;;5069846;28;20059;-30
2022/11/05 02:05:26;;;;;;;12.38;8.98;;;5.70;99.90;;;;;;5070170;28;20115;-30
2022/11/05 02:07:53;;;;;;;9.75;7.25;;;5.80;99.90;;;;;;5070289;28;20036;-30
2022/11/05 02:10:20;;;;;;;11.85;6.88;;;5.80;99.90;;;;;;5069721;28;20036;-31
2022/11/05 02:12:47;;;;;;;13.00;7.38;;;5.90;99.90;;;;;;5070102;28;20044;-32
2022/11/05 02:15:16;;;;;;;8.95;6.07;;;5.90;99.90;;;;;;5069994;28;20477;-30
2022/11/05 02:17:45;;;;;;;12.98;6.78;;;5.80;99.90;;;;;;5055685;28;20048;-30
2022/11/05 02:20:23;;;;;;;11.73;7.10;;;5.80;99.90;;;;;;5073632;28;20424;-30
2022/11/05 02:23:18;;;;;;;11.80;6.07;;;5.80;99.90;;;;;;5073094;28;20036;-31
2022/11/05 02:26:02;;;;;;;12.75;6.85;;;5.80;99.90;;;;;;5068329;28;20070;-30
2022/11/05 02:29:00;;;;;;;9.88;6.90;;;5.70;99.90;;;;;;5073509;28;20375;-30
2022/11/05 02:31:40;;;;;;;12.57;7.35;;;5.70;99.90;;;;;;5057428;28;20385;-32
2022/11/05 02:34:31;;;;;;;10.15;6.43;;;5.70;99.90;;;;;;5074139;28;20039;-31
2022/11/05 02:37:18;;;;;;;11.25;7.25;;;5.60;99.90;;;;;;5073382;28;20097;-33
2022/11/05 02:40:15;;;;;;;11.43;7.90;;;5.60;99.90;;;;;;5056491;28;20050;-31
2022/11/05 02:43:03;;;;;;;11.23;8.63;;;5.60;99.90;;;;;;5067518;28;20509;-31
2022/11/05 02:45:56;;;;;;;13.63;8.88;;;5.70;99.90;;;;;;5073030;28;20064;-31
2022/11/05 02:48:25;;;;;;;11.90;7.57;;;5.70;99.90;;;;;;5072723;28;20036;-30
2022/11/05 02:50:58;;;;;;;12.88;8.30;;;5.70;99.90;;;;;;5073035;28;20049;-30
2022/11/05 02:53:37;;;;;;;10.68;7.80;;;5.70;99.90;;;;;;5056018;28;20040;-30
2022/11/05 02:56:12;;;;;;;12.20;7.72;;;5.70;99.90;;;;;;5072908;28;20540;-31
2022/11/05 02:58:37;;;;;;;12.20;8.80;;;5.60;99.90;;;;;;5072539;28;20052;-28
2022/11/05 03:01:05;;;;;;;10.23;7.28;;;5.70;99.90;;;;;;5072608;28;20093;-30
2022/11/05 03:03:36;;;;;;;10.38;7.57;;;5.70;99.90;;;;;;5072812;28;20040;-29
2022/11/05 03:06:47;;;;;;;9.05;6.82;;;5.70;99.90;;;;;;5072403;28;20040;-29
2022/11/05 03:09:15;;;;;;;10.55;6.57;;;5.60;99.90;;;;;;5049171;28;20143;-29
2022/11/05 03:12:00;;;;;;;12.07;7.82;;;5.60;99.90;;;;;;5072638;28;20094;-29
2022/11/05 03:14:50;;;;;;;9.27;7.03;;;5.60;99.90;;;;;;5064876;28;20093;-29
2022/11/05 03:17:42;;;;;;;10.45;6.55;;;5.60;99.90;;;;;;5072578;28;20083;-29
2022/11/05 03:20:19;;;;;;;8.65;6.50;;;5.60;99.90;;;;;;5072145;28;20076;-30
2022/11/05 03:23:00;;;;;;;11.30;5.85;;;5.50;99.90;;;;;;5072390;28;20394;-30
2022/11/05 03:25:31;;;;;;;8.00;5.85;;;5.50;99.90;;;;;;5071873;28;20077;-31
2022/11/05 03:28:04;;;;;;;7.97;5.80;;;5.40;99.90;;;;;;5071500;28;20174;-30
2022/11/05 03:30:34;;;;;;;9.90;6.03;;;5.40;99.90;;;;;;5071913;28;20045;-29
2022/11/05 03:33:05;;;;;;;9.07;6.43;;;5.40;99.90;;;;;;5072140;28;20041;-30
2022/11/05 03:35:38;;;;;;;8.50;5.40;;;5.40;99.90;;;;;;5071859;28;20074;-29
2022/11/05 03:38:10;;;;;;;10.00;6.15;;;5.40;99.90;;;;;;5072191;28;20090;-29
2022/11/05 03:40:38;;;;;;;10.60;6.95;;;5.40;99.90;;;;;;5072053;28;20120;-29
2022/11/05 03:43:06;;;;;;;8.82;5.80;;;5.40;99.90;;;;;;5071945;28;20493;-30
2022/11/05 03:46:05;;;;;;;7.95;5.82;;;5.40;99.90;;;;;;5071496;28;20040;-29
2022/11/05 03:48:36;;;;;;;8.45;5.72;;;5.30;99.90;;;;;;5043494;28;20064;-30
2022/11/05 03:51:32;;;;;;;6.35;5.10;;;5.30;99.90;;;;;;5071392;28;20132;-29
2022/11/05 03:54:01;;;;;;;7.43;5.55;;;5.30;99.90;;;;;;5045953;28;20051;-29
2022/11/05 03:56:30;;;;;;;9.40;5.43;;;5.20;99.90;;;;;;5071528;28;20362;-29
2022/11/05 03:58:58;;;;;;;5.90;5.20;;;5.20;99.90;;;;;;5071325;28;20043;-29
2022/11/05 04:01:25;;;;;;;8.23;4.95;;;5.20;99.90;;;;;;5071525;28;20044;-29
2022/11/05 04:03:53;;;;;;;10.13;5.55;;;5.10;99.90;;;;;;5071444;28;20046;-29
2022/11/05 04:14:32;;;;;;;8.07;5.68;;;5.20;99.90;;;;;;5072532;28;20394;-29
2022/11/05 04:17:10;;;;;;;9.95;5.78;;;5.20;99.90;;;;;;5070971;28;20036;-29
2022/11/05 04:25:16;;;;;;;11.77;5.38;;;5.10;99.90;;;;;;5072361;28;20055;-30
2022/11/05 04:27:43;;;;;;;8.50;5.25;;;5.10;99.90;;;;;;5070904;28;20120;-30
2022/11/05 04:30:19;;;;;;;7.88;4.70;;;5.10;99.90;;;;;;5071023;28;20029;-30
2022/11/05 04:33:06;;;;;;;8.50;5.43;;;5.10;99.90;;;;;;5070762;28;20044;-32
2022/11/05 04:35:52;;;;;;;6.60;5.13;;;5.00;99.90;;;;;;5070696;28;20124;-30
2022/11/05 04:38:19;;;;;;;6.78;5.22;;;5.00;99.90;;;;;;5070318;28;20075;-29
2022/11/05 04:40:46;;;;;;;9.35;6.22;;;5.00;99.90;;;;;;5070039;28;20047;-30
2022/11/05 04:43:17;;;;;;;7.60;5.05;;;5.00;99.90;;;;;;5070789;28;20051;-30
2022/11/05 04:45:43;;;;;;;11.45;6.25;;;5.00;99.90;;;;;;5070790;28;20048;-29
2022/11/05 04:48:09;;;;;;;8.57;5.57;;;5.00;99.90;;;;;;5071039;28;20048;-30
2022/11/05 04:50:35;;;;;;;10.70;5.72;;;4.90;99.90;;;;;;5071167;28;20036;-29
2022/11/05 04:53:01;;;;;;;9.75;5.55;;;5.00;99.90;;;;;;5070470;28;20033;-29
2022/11/05 04:55:27;;;;;;;7.05;5.43;;;5.00;99.90;;;;;;5070763;28;20166;-30
2022/11/05 04:57:54;;;;;;;7.22;5.72;;;5.00;99.90;;;;;;5070710;28;20048;-29
2022/11/05 05:00:21;;;;;;;8.25;5.72;;;4.90;99.90;;;;;;5062373;28;20075;-30
2022/11/05 05:02:47;;;;;;;11.68;6.25;;;4.90;99.90;;;;;;5070578;28;20169;-30
2022/11/05 05:05:13;;;;;;;7.57;5.72;;;5.00;99.90;;;;;;5070359;28;20044;-30
2022/11/05 05:07:40;;;;;;;8.05;5.07;;;5.00;99.90;;;;;;5070446;28;20093;-29
2022/11/05 05:10:07;;;;;;;7.05;5.47;;;4.90;99.90;;;;;;5070336;28;20071;-29
2022/11/05 05:12:33;;;;;;;11.32;6.20;;;4.90;99.90;;;;;;5070655;28;20037;-29
2022/11/05 05:14:59;;;;;;;9.07;6.05;;;4.90;99.90;;;;;;5070157;28;20041;-30
2022/11/05 05:17:25;;;;;;;8.90;5.53;;;4.90;99.90;;;;;;5070578;28;20128;-30
2022/11/05 05:22:35;;;;;;;9.88;5.72;;;4.80;99.90;;;;;;5071478;28;20093;-30
2022/11/05 05:25:01;;;;;;;10.43;5.78;;;4.80;99.90;;;;;;5070598;28;20453;-28
2022/11/05 05:27:30;;;;;;;9.20;6.03;;;4.80;99.90;;;;;;5070173;28;20044;-30
2022/11/05 05:29:57;;;;;;;12.18;7.45;;;4.80;99.90;;;;;;5070031;28;20040;-29
2022/11/05 05:32:24;;;;;;;11.98;6.93;;;4.80;99.90;;;;;;5070265;28;20055;-30
2022/11/05 05:34:51;;;;;;;11.48;6.43;;;4.80;99.90;;;;;;5070367;28;20035;-29
2022/11/05 05:37:17;;;;;;;8.85;5.60;;;4.80;99.90;;;;;;5070401;28;20116;-29
2022/11/05 05:39:43;;;;;;;7.07;6.15;;;4.80;99.90;;;;;;5071654;28;20448;-30
2022/11/05 05:42:10;;;;;;;8.52;6.35;;;4.80;99.90;;;;;;5070393;28;20704;-30
2022/11/05 05:44:35;;;;;;;9.48;6.38;;;4.70;99.90;;;;;;5053206;28;20044;-31
2022/11/05 05:47:01;;;;;;;9.65;6.50;;;4.70;99.90;;;;;;5070257;28;20127;-30
2022/11/05 05:49:27;;;;;;;11.63;7.50;;;4.70;99.90;;;;;;5070369;28;20036;-30
2022/11/05 05:51:53;;;;;;;10.10;6.85;;;4.70;99.90;;;;;;5056611;28;20581;-29
2022/11/05 05:54:19;;;;;;;7.72;5.97;;;4.70;99.90;;;;;;5073683;28;20040;-30
2022/11/05 05:56:45;;;;;;;14.25;7.80;;;4.70;99.90;;;;;;5057060;28;20038;-29
2022/11/05 05:59:11;;;;;;;8.38;6.68;;;4.70;99.90;;;;;;5073794;28;20482;-31
2022/11/05 06:01:37;;;;;;;9.73;6.28;;;4.70;99.90;;;;;;5073985;28;20512;-30
2022/11/05 06:04:03;;;;;;;10.88;6.00;;;4.70;99.90;;;;;;5073799;28;20040;-29
2022/11/05 06:06:29;;;;;;;8.80;7.18;;;4.60;99.90;;;;;;5073840;28;20101;-30
2022/11/05 06:08:55;;;;;;;13.20;7.60;;;4.60;99.90;;;;;;5073392;28;20123;-30
2022/11/05 06:11:22;;;;;;;15.30;7.88;;;4.60;99.90;;;;;;5073806;28;20044;-30
2022/11/05 06:13:48;;;;;;;11.63;8.18;;;4.60;99.90;;;;;;5073582;28;20042;-29
2022/11/05 06:16:13;;;;;;;16.08;8.82;;;4.60;99.90;;;;;;5073578;28;20200;-30
2022/11/05 06:18:39;;;;;;;14.98;8.82;;;4.60;99.90;;;;;;5073405;28;20049;-29
2022/11/05 06:21:08;;;;;;;13.77;9.07;;;4.60;99.90;;;;;;5073491;28;20086;-30
2022/11/05 06:23:35;;;;;;;9.98;7.60;;;4.70;99.90;;;;;;5073735;28;20037;-30
2022/11/05 06:26:03;;;;;;;14.25;8.63;;;4.70;99.90;;;;;;5073585;28;20029;-30
2022/11/05 06:28:29;;;;;;;10.90;8.10;;;4.80;99.90;;;;;;5073360;28;20036;-30
2022/11/05 06:30:56;;;;;;;12.68;7.47;;;4.80;99.90;;;;;;5072934;28;20044;-29
2022/11/05 06:33:22;;;;;;;13.43;9.05;;;4.90;99.90;;;;;;5072999;28;20028;-28
2022/11/05 06:35:48;;;;;;;13.57;9.35;;;4.90;99.90;;;;;;5073269;28;20043;-28
2022/11/05 06:38:13;;;;;;;15.55;10.50;;;5.00;99.90;;;;;;5073355;28;20066;-28
2022/11/05 06:40:39;;;;;;;15.32;10.02;;;5.00;99.90;;;;;;5073300;28;20037;-29
2022/11/05 06:43:05;;;;;;;16.17;11.13;;;5.00;99.90;;;;;;5074167;28;20390;-29
2022/11/05 06:45:31;;;;;;;18.02;14.32;;;5.10;99.90;;;;;;5072737;28;20041;-31
2022/11/05 06:47:58;;;;;;;20.20;15.23;;;5.10;99.90;;;;;;5073162;28;20033;-31
2022/11/05 06:50:25;;;;;;;41.97;28.40;;;5.10;99.90;;;;;;5073216;28;20064;-29
2022/11/05 06:52:58;;;;;;;18.60;14.98;;;5.10;99.90;;;;;;5072673;28;20102;-29
2022/11/05 06:55:26;;;;;;;15.70;13.00;;;5.10;99.90;;;;;;5065251;28;20045;-29
2022/11/05 06:57:53;;;;;;;10.65;8.90;;;5.10;99.90;;;;;;5072586;28;20052;-30
2022/11/05 07:00:19;;;;;;;15.10;9.95;;;5.10;99.90;;;;;;5072922;28;20036;-28
2022/11/05 07:02:45;;;;;;;12.32;9.75;;;5.10;99.90;;;;;;5071954;28;20047;-29
2022/11/05 07:05:12;;;;;;;12.45;9.27;;;5.10;99.90;;;;;;5073251;28;20126;-29
2022/11/05 07:07:39;;;;;;;16.23;10.40;;;5.10;99.90;;;;;;5073300;28;20127;-30
2022/11/05 07:10:07;;;;;;;12.52;10.05;;;5.10;99.90;;;;;;5072824;28;20094;-29
2022/11/05 07:12:32;;;;;;;10.98;8.75;;;5.10;99.90;;;;;;5072427;28;20040;-29
2022/11/05 07:14:58;;;;;;;14.40;11.07;;;5.10;99.90;;;;;;5073867;28;20114;-28
2022/11/05 07:17:24;;;;;;;12.65;11.35;;;5.10;99.90;;;;;;5072406;28;20402;-29
2022/11/05 07:19:50;;;;;;;15.20;11.52;;;5.20;99.90;;;;;;5055899;28;20044;-29
2022/11/05 07:22:15;;;;;;;11.45;10.23;;;5.10;99.90;;;;;;5072226;28;20115;-29
2022/11/05 07:24:42;;;;;;;13.63;9.00;;;5.10;99.90;;;;;;5072579;28;20115;-30
2022/11/05 07:27:08;;;;;;;13.32;9.25;;;5.20;99.90;;;;;;5072138;28;20033;-28
2022/11/05 07:29:34;;;;;;;12.60;9.93;;;5.20;99.90;;;;;;5071882;28;20063;-29
2022/11/05 07:31:59;;;;;;;14.35;11.75;;;5.20;99.90;;;;;;5072367;28;20127;-29
2022/11/05 07:34:25;;;;;;;13.27;10.52;;;5.30;99.90;;;;;;5071876;28;20044;-29
2022/11/05 07:36:54;;;;;;;15.68;10.45;;;5.30;99.90;;;;;;5072094;28;20047;-29
2022/11/05 07:39:20;;;;;;;13.68;10.65;;;5.40;99.90;;;;;;5071767;28;20063;-29
2022/11/05 07:41:45;;;;;;;11.45;10.13;;;5.40;99.90;;;;;;5071777;28;20044;-28
2022/11/05 07:44:13;;;;;;;13.15;10.82;;;5.50;99.90;;;;;;5071849;28;20085;-29
2022/11/05 07:46:40;;;;;;;15.07;10.02;;;5.60;99.90;;;;;;5055595;28;20537;-29
2022/11/05 07:49:06;;;;;;;15.73;10.63;;;5.60;99.90;;;;;;5071761;28;20029;-29
2022/11/05 07:51:32;;;;;;;12.20;10.00;;;5.70;99.90;;;;;;5071944;28;20044;-29
2022/11/05 07:53:57;;;;;;;13.75;10.88;;;5.80;99.90;;;;;;5071382;28;20113;-29
2022/11/05 07:56:23;;;;;;;14.27;10.85;;;5.80;99.90;;;;;;5071642;28;20043;-29
2022/11/05 07:58:49;;;;;;;18.23;12.05;;;5.90;99.90;;;;;;5071503;28;20463;-29
2022/11/05 08:01:15;;;;;;;19.17;14.32;;;5.90;99.90;;;;;;5071717;28;20044;-30
2022/11/05 08:03:40;;;;;;;15.55;12.65;;;5.90;99.90;;;;;;5071675;28;20497;-30
2022/11/05 08:06:06;;;;;;;15.00;9.80;;;6.00;99.90;;;;;;5071328;28;20392;-30
2022/11/05 08:08:33;;;;;;;14.85;11.80;;;6.10;99.90;;;;;;5071252;28;20044;-29
2022/11/05 08:11:04;;;;;;;15.95;12.40;;;6.30;99.90;;;;;;5070100;28;20040;-30
2022/11/05 08:13:30;;;;;;;14.15;9.90;;;6.70;99.90;;;;;;5069436;28;20450;-29
2022/11/05 08:15:56;;;;;;;16.17;10.73;;;7.40;99.90;;;;;;5069208;28;20553;-29
2022/11/05 08:18:22;;;;;;;13.52;9.32;;;8.00;99.90;;;;;;5069766;28;20048;-29
2022/11/05 08:20:48;;;;;;;9.15;8.32;;;8.60;99.90;;;;;;5053359;28;20490;-30
2022/11/05 08:23:14;;;;;;;9.00;8.10;;;9.20;99.90;;;;;;5070086;28;20036;-29
2022/11/05 08:25:40;;;;;;;12.73;8.63;;;9.60;99.90;;;;;;5070196;28;20051;-30
2022/11/05 08:28:09;;;;;;;9.93;8.13;;;10.00;99.90;;;;;;5071430;28;20040;-31
2022/11/05 08:30:35;;;;;;;8.57;7.47;;;10.50;99.90;;;;;;5071229;28;20086;-30
2022/11/05 08:33:08;;;;;;;7.68;6.55;;;10.70;99.90;;;;;;5071259;28;20040;-30
2022/11/05 08:35:35;;;;;;;7.60;5.93;;;11.10;99.90;;;;;;5070986;28;20050;-30
2022/11/05 08:38:03;;;;;;;8.00;5.97;;;11.50;99.90;;;;;;5072207;28;20048;-30
2022/11/05 08:40:30;;;;;;;6.95;5.75;;;11.60;99.90;;;;;;5071153;28;20036;-31
2022/11/05 08:42:57;;;;;;;8.00;5.15;;;11.90;99.90;;;;;;5071214;28;20401;-30
2022/11/05 08:45:24;;;;;;;6.88;4.63;;;12.20;99.90;;;;;;5071073;28;20503;-29
2022/11/05 08:47:50;;;;;;;6.13;5.30;;;12.50;99.90;;;;;;5072327;28;20051;-30
2022/11/05 08:50:16;;;;;;;7.70;5.53;;;12.70;99.90;;;;;;5070959;28;20610;-30
2022/11/05 08:52:42;;;;;;;8.98;5.72;;;12.80;99.90;;;;;;5072207;28;20170;-31
2022/11/05 08:55:08;;;;;;;6.60;5.97;;;13.20;99.90;;;;;;5053880;28;20510;-29
2022/11/05 08:57:34;;;;;;;7.30;5.53;;;13.30;99.90;;;;;;5070448;28;20048;-30
2022/11/05 08:59:59;;;;;;;9.93;6.63;;;13.60;99.90;;;;;;5070854;28;20145;-30
2022/11/05 09:02:25;;;;;;;5.40;4.90;;;13.80;99.90;;;;;;5054087;28;20503;-31
2022/11/05 09:04:51;;;;;;;7.70;5.38;;;14.30;99.90;;;;;;5053965;28;20041;-30
2022/11/05 09:07:16;;;;;;;6.78;4.78;;;14.50;99.90;;;;;;5070523;28;20102;-30
2022/11/05 09:09:42;;;;;;;7.15;4.32;;;14.60;99.90;;;;;;5070745;28;20102;-31
2022/11/05 09:12:08;;;;;;;5.45;4.68;;;14.90;99.90;;;;;;5070725;28;20359;-30
2022/11/05 09:14:33;;;;;;;4.30;3.88;;;15.20;99.90;;;;;;5070412;28;20120;-30
2022/11/05 09:16:59;;;;;;;5.88;3.80;;;15.50;99.90;;;;;;5070844;28;20035;-30
2022/11/05 09:19:25;;;;;;;4.55;3.90;;;15.60;99.90;;;;;;5070805;28;20449;-30
2022/11/05 09:21:51;;;;;;;5.10;4.10;;;15.80;99.90;;;;;;5070941;28;20079;-31
2022/11/05 09:24:17;;;;;;;5.10;3.72;;;16.10;99.90;;;;;;5070932;28;20489;-30
2022/11/05 09:26:42;;;;;;;5.82;4.00;;;16.00;99.90;;;;;;5074536;28;20036;-31
2022/11/05 09:29:08;;;;;;;6.85;4.03;;;16.20;99.90;;;;;;5074760;28;20045;-31
2022/11/05 09:31:34;;;;;;;5.07;3.65;;;16.40;99.90;;;;;;5075071;28;20051;-31
2022/11/05 09:33:59;;;;;;;4.55;3.50;;;16.40;99.90;;;;;;5076398;28;20503;-34
2022/11/05 09:36:25;;;;;;;6.65;4.20;;;15.80;99.90;;;;;;5062113;28;20036;-35
2022/11/05 09:38:51;;;;;;;5.18;3.90;;;15.80;99.90;;;;;;5079159;28;20448;-33
2022/11/05 09:41:30;;;;;;;5.80;3.80;;;16.20;99.90;;;;;;5066620;28;20386;-35
2022/11/05 09:44:02;;;;;;;4.10;3.60;;;16.60;99.90;;;;;;5046808;28;20367;-31
2022/11/05 09:46:38;;;;;;;6.20;3.20;;;17.10;99.90;;;;;;5074203;28;20045;-31
2022/11/05 09:49:09;;;;;;;4.85;4.13;;;17.30;99.90;;;;;;5055647;28;20040;-30
2022/11/05 09:51:36;;;;;;;5.50;3.38;;;17.50;99.90;;;;;;5057116;28;20409;-32
2022/11/05 09:54:03;;;;;;;4.53;3.53;;;17.60;99.90;;;;;;5060986;28;20033;-32
2022/11/05 09:56:32;;;;;;;4.68;3.42;;;18.00;99.90;;;;;;5048304;28;20079;-31
2022/11/05 09:59:05;;;;;;;4.13;3.55;;;18.30;99.90;;;;;;5068857;28;20512;-32
2022/11/05 10:01:35;;;;;;;3.90;3.30;;;18.70;99.90;;;;;;5056621;28;20070;-32
2022/11/05 10:04:13;;;;;;;6.75;3.53;;;19.00;99.90;;;;;;5073050;28;20032;-31
2022/11/05 10:06:51;;;;;;;5.18;3.13;;;19.00;99.90;;;;;;5069462;28;20041;-32
2022/11/05 10:09:26;;;;;;;4.13;3.08;;;18.70;99.90;;;;;;5050058;28;20071;-31
2022/11/05 10:12:03;;;;;;;3.63;3.00;;;18.50;99.90;;;;;;5058283;28;20032;-31
2022/11/05 10:14:35;;;;;;;3.50;3.00;;;18.70;99.90;;;;;;5056226;28;20098;-31
2022/11/05 10:17:21;;;;;;;5.47;3.00;;;18.80;99.90;;;;;;5055271;28;20051;-32
2022/11/05 10:20:01;;;;;;;4.68;3.13;;;19.00;99.20;;;;;;5039875;28;20044;-32
2022/11/05 10:22:27;;;;;;;5.22;2.75;;;19.20;99.90;;;;;;5056127;28;20040;-32
2022/11/05 10:24:54;;;;;;;3.22;2.80;;;19.30;99.90;;;;;;5046919;28;20033;-31
2022/11/05 10:27:28;;;;;;;4.95;3.50;;;19.20;99.90;;;;;;5066558;28;20040;-34
2022/11/05 10:29:53;;;;;;;6.32;3.75;;;18.90;99.90;;;;;;5046640;28;20044;-32
2022/11/05 10:32:32;;;;;;;4.13;3.30;;;18.60;99.90;;;;;;5058760;28;20044;-31
2022/11/05 10:35:01;;;;;;;3.95;3.00;;;18.90;99.90;;;;;;5072660;28;20029;-33
2022/11/05 10:37:28;;;;;;;3.50;3.20;;;19.50;99.90;;;;;;5061005;28;20435;-32
2022/11/05 10:39:54;;;;;;;4.85;4.40;;;20.10;99.90;;;;;;5065137;28;20375;-33
2022/11/05 10:42:35;;;;;;;3.70;3.10;;;20.50;99.90;;;;;;5068164;28;20040;-32
2022/11/05 10:45:26;;;;;;;3.45;2.90;;;20.90;94.10;;;;;;5062099;28;20498;-32
2022/11/05 10:48:29;;;;;;;4.82;2.80;;;21.30;97.00;;;;;;5081667;28;20039;-32
2022/11/05 10:50:56;;;;;;;5.70;2.88;;;21.30;72.60;;;;;;5053608;28;20053;-31
2022/11/05 10:53:48;;;;;;;3.85;2.75;;;20.70;99.50;;;;;;5048666;28;20036;-33
2022/11/05 10:56:47;;;;;;;4.53;2.90;;;20.20;86.40;;;;;;5071565;28;20047;-32
2022/11/05 10:59:22;;;;;;;2.90;2.60;;;19.60;79.80;;;;;;5031630;28;20071;-30
2022/11/05 11:02:21;;;;;;;4.65;2.60;;;19.10;98.90;;;;;;5071702;28;20394;-32
2022/11/05 11:04:57;;;;;;;4.65;2.83;;;18.50;97.80;;;;;;5051131;28;20106;-31
2022/11/05 11:07:24;;;;;;;5.28;2.97;;;18.20;99.90;;;;;;5070876;28;20039;-33
2022/11/05 11:09:51;;;;;;;3.42;3.03;;;17.90;99.90;;;;;;5071591;28;20101;-32
2022/11/05 11:12:26;;;;;;;3.75;2.55;;;17.80;99.90;;;;;;5058361;28;20116;-32
2022/11/05 11:15:26;;;;;;;5.45;3.10;;;17.40;99.90;;;;;;5073902;28;20517;-31
2022/11/05 11:17:53;;;;;;;5.05;3.13;;;16.80;99.90;;;;;;5057901;28;20037;-32
2022/11/05 11:20:22;;;;;;;5.35;3.03;;;16.60;99.90;;;;;;5060536;28;20040;-32
2022/11/05 11:23:20;;;;;;;7.60;3.53;;;16.40;99.90;;;;;;5056074;28;20040;-32
2022/11/05 11:26:00;;;;;;;7.25;3.40;;;16.30;99.90;;;;;;5065921;28;20064;-32
2022/11/05 11:28:46;;;;;;;3.90;3.40;;;16.50;99.90;;;;;;5074238;28;20490;-31
2022/11/05 11:31:13;;;;;;;4.55;2.92;;;16.60;99.90;;;;;;5062485;28;20032;-33
2022/11/05 11:33:46;;;;;;;4.95;3.20;;;16.40;99.90;;;;;;5050152;28;20037;-31
2022/11/05 11:36:15;;;;;;;4.47;4.05;;;16.90;99.90;;;;;;5058023;28;20028;-31
2022/11/05 11:38:41;;;;;;;5.72;3.20;;;17.60;99.90;;;;;;5051634;28;20036;-31
2022/11/05 11:41:16;;;;;;;3.63;3.10;;;18.20;99.90;;;;;;5068753;28;20078;-31
2022/11/05 11:43:43;;;;;;;6.25;3.40;;;18.50;99.90;;;;;;5062365;28;20037;-31
2022/11/05 11:46:16;;;;;;;4.40;3.67;;;18.70;99.90;;;;;;5050934;28;20853;-32
2022/11/05 11:48:46;;;;;;;4.38;3.33;;;18.30;99.90;;;;;;5072255;28;20048;-32
2022/11/05 11:51:28;;;;;;;4.20;3.80;;;17.80;99.90;;;;;;5071750;28;20375;-30
2022/11/05 11:53:59;;;;;;;5.78;3.95;;;17.00;99.90;;;;;;5072518;28;20520;-31
2022/11/05 11:56:26;;;;;;;4.80;3.45;;;16.40;99.90;;;;;;5069744;28;20035;-32
2022/11/05 11:58:54;;;;;;;4.65;3.25;;;15.80;99.90;;;;;;5070833;28;20043;-30
2022/11/05 12:01:41;;;;;;;5.68;3.60;;;15.50;99.90;;;;;;5071792;28;20503;-31
2022/11/05 12:04:29;;;;;;;5.82;3.83;;;15.10;99.90;;;;;;5069386;28;20056;-32
2022/11/05 12:07:13;;;;;;;5.95;4.68;;;14.80;99.90;;;;;;5057163;28;20063;-33
2022/11/05 12:09:58;;;;;;;;;;;14.50;99.90;;;;;;5055532;28;20051;-30
2022/11/05 12:12:51;;;;;;;5.63;4.53;;;14.40;99.90;;;;;;5064591;28;20013;-32
2022/11/05 12:15:35;;;;;;;6.63;4.40;;;14.20;99.90;;;;;;5072237;28;20043;-30
2022/11/05 12:18:15;;;;;;;6.05;4.63;;;14.00;99.90;;;;;;5069364;28;20931;-30
2022/11/05 12:20:56;;;;;;;5.65;4.70;;;13.90;99.90;;;;;;5055517;28;20044;-32
2022/11/05 12:23:50;;;;;;;8.63;6.18;;;13.70;99.90;;;;;;5071847;28;20047;-32
2022/11/05 12:26:48;;;;;;;5.47;4.55;;;13.60;99.90;;;;;;5071316;28;20050;-30
2022/11/05 12:29:29;;;;;;;6.13;5.53;;;13.40;99.90;;;;;;5049636;28;20427;-32
2022/11/05 12:31:55;;;;;;;5.68;4.75;;;13.30;99.90;;;;;;5069442;28;20041;-29
2022/11/05 12:34:57;;;;;;;6.35;4.30;;;13.30;99.90;;;;;;5059889;28;20040;-31
2022/11/05 12:37:32;;;;;;;7.50;5.95;;;13.30;99.90;;;;;;5072202;28;20036;-30
2022/11/05 12:40:16;;;;;;;6.70;5.15;;;13.40;99.90;;;;;;5069676;28;20044;-31
2022/11/05 12:43:09;;;;;;;5.88;4.88;;;13.40;99.90;;;;;;5064929;28;20378;-31
2022/11/05 12:45:55;;;;;;;7.93;5.05;;;13.40;99.90;;;;;;5052990;28;20056;-31
2022/11/05 12:48:33;;;;;;;8.50;4.25;;;13.40;99.90;;;;;;5059826;28;20383;-32
2022/11/05 12:51:25;;;;;;;6.90;4.40;;;13.40;99.90;;;;;;5044406;28;20033;-30
2022/11/05 12:54:06;;;;;;;8.25;4.75;;;13.30;99.90;;;;;;5067859;28;20067;-31
2022/11/05 12:56:41;;;;;;;6.72;4.00;;;13.30;99.90;;;;;;5049870;28;20090;-35
2022/11/05 12:59:36;;;;;;;6.32;4.65;;;13.30;99.90;;;;;;5051702;28;20367;-32
2022/11/05 13:02:26;;;;;;;5.55;4.57;;;13.30;99.90;;;;;;5075650;28;20094;-32
2022/11/05 13:05:12;;;;;;;7.80;4.60;;;13.30;99.90;;;;;;5073913;28;20051;-31
2022/11/05 13:07:58;;;;;;;7.63;4.50;;;13.30;99.90;;;;;;5074626;28;20033;-31
2022/11/05 13:10:31;;;;;;;5.43;4.18;;;13.20;99.90;;;;;;5061659;28;20050;-31
2022/11/05 13:13:10;;;;;;;6.63;4.87;;;13.30;99.90;;;;;;5054432;28;20040;-31
2022/11/05 13:15:56;;;;;;;6.57;5.05;;;13.30;99.90;;;;;;5051664;28;20033;-36
2022/11/05 13:18:47;;;;;;;8.45;5.38;;;13.30;99.90;;;;;;5074342;28;20037;-34
2022/11/05 13:21:16;;;;;;;9.40;5.85;;;13.50;99.90;;;;;;5072839;28;20032;-30
2022/11/05 13:24:04;;;;;;;7.10;5.65;;;13.60;99.90;;;;;;5070637;28;20482;-34
2022/11/05 13:26:50;;;;;;;9.05;5.97;;;13.60;99.90;;;;;;5074812;28;20044;-32
2022/11/05 13:29:40;;;;;;;9.07;6.03;;;13.60;99.90;;;;;;5055292;28;20044;-32
2022/11/05 13:32:11;;;;;;;10.23;5.80;;;13.60;99.90;;;;;;5074070;28;20068;-32
2022/11/05 13:34:37;;;;;;;9.70;5.53;;;13.60;99.90;;;;;;5075442;28;20509;-29
2022/11/05 13:39:56;;;;;;;6.50;5.30;;;13.50;99.90;;;;;;5069675;28;20410;-33
2022/11/05 13:42:43;;;;;;;8.38;4.82;;;13.50;99.90;;;;;;5067037;28;20509;-31
2022/11/05 13:45:18;;;;;;;9.43;5.45;;;13.40;99.90;;;;;;5066680;28;20041;-31
2022/11/05 13:48:09;;;;;;;6.68;5.57;;;13.20;99.90;;;;;;5054200;28;20041;-32
2022/11/05 13:50:59;;;;;;;6.95;5.88;;;13.00;99.90;;;;;;5057996;28;20049;-33
2022/11/05 13:53:56;;;;;;;7.22;5.45;;;12.90;99.90;;;;;;5064307;28;20046;-30
2022/11/05 13:56:49;;;;;;;8.88;6.57;;;12.80;99.90;;;;;;5067642;28;20043;-30